Archers Lodge, North Carolina
Current Conditions -  °F | °C
As of 12:55 AM on Sunday 21 Dec 2014 (Local Time) from KJNX Reporting Station
Haze Haze  
Wind Chill:   Ceiling: 3400
Heat Index:   Visibility: 5mi
Dew Point:   Wind: 0mph
Humidity: 100%   Direction: NA
Pressure: 30.27"   Gusts: NA
Location:  35.6101°N, 78.4715°W
Report Text: KJNX 210555Z AUTO 00000KT 5SM BR OVC034 01/01 A3027 RMK AO2
Loading
Personal Weather Stations






























Interactive Weather Map New forecast layout! Learn more

10-Day Weather Forecast

Advertisements
Track Severe Weather on mobile